sensor_id;sensor_type;location;lat;lon;timestamp;P1;durP1;ratioP1;P2;durP2;ratioP2
64875;SDS011;51369;49.862;9.908;2023-07-28T00:01:52;4.63;;;3.90;;
64875;SDS011;51369;49.862;9.908;2023-07-28T00:04:17;5.50;;;4.72;;
64875;SDS011;51369;49.862;9.908;2023-07-28T00:06:42;4.47;;;4.07;;
64875;SDS011;51369;49.862;9.908;2023-07-28T00:09:08;5.88;;;3.83;;
64875;SDS011;51369;49.862;9.908;2023-07-28T00:11:33;8.27;;;4.20;;
64875;SDS011;51369;49.862;9.908;2023-07-28T00:13:59;12.57;;;3.95;;
64875;SDS011;51369;49.862;9.908;2023-07-28T00:16:24;8.40;;;3.78;;
64875;SDS011;51369;49.862;9.908;2023-07-28T00:18:49;7.30;;;3.75;;
64875;SDS011;51369;49.862;9.908;2023-07-28T00:21:15;8.27;;;4.25;;
64875;SDS011;51369;49.862;9.908;2023-07-28T00:23:40;4.45;;;3.42;;
64875;SDS011;51369;49.862;9.908;2023-07-28T00:26:06;3.95;;;3.28;;
64875;SDS011;51369;49.862;9.908;2023-07-28T00:28:31;4.53;;;3.47;;
64875;SDS011;51369;49.862;9.908;2023-07-28T00:30:57;5.95;;;3.47;;
64875;SDS011;51369;49.862;9.908;2023-07-28T00:33:23;6.72;;;3.95;;
64875;SDS011;51369;49.862;9.908;2023-07-28T00:35:48;10.70;;;4.25;;
64875;SDS011;51369;49.862;9.908;2023-07-28T00:38:14;5.97;;;3.67;;
64875;SDS011;51369;49.862;9.908;2023-07-28T00:40:39;6.30;;;3.30;;
64875;SDS011;51369;49.862;9.908;2023-07-28T00:43:05;3.85;;;3.42;;
64875;SDS011;51369;49.862;9.908;2023-07-28T00:45:30;5.35;;;3.47;;
64875;SDS011;51369;49.862;9.908;2023-07-28T00:47:57;4.82;;;4.00;;
64875;SDS011;51369;49.862;9.908;2023-07-28T00:50:24;4.90;;;3.72;;
64875;SDS011;51369;49.862;9.908;2023-07-28T00:52:51;5.78;;;3.55;;
64875;SDS011;51369;49.862;9.908;2023-07-28T00:55:17;4.88;;;3.50;;
64875;SDS011;51369;49.862;9.908;2023-07-28T00:57:43;3.55;;;3.20;;
64875;SDS011;51369;49.862;9.908;2023-07-28T01:00:09;10.77;;;3.50;;
64875;SDS011;51369;49.862;9.908;2023-07-28T01:02:35;6.75;;;3.65;;
64875;SDS011;51369;49.862;9.908;2023-07-28T01:05:02;8.60;;;4.18;;
64875;SDS011;51369;49.862;9.908;2023-07-28T01:10:23;5.30;;;3.17;;
64875;SDS011;51369;49.862;9.908;2023-07-28T01:12:51;3.65;;;3.05;;
64875;SDS011;51369;49.862;9.908;2023-07-28T01:15:17;4.88;;;3.33;;
64875;SDS011;51369;49.862;9.908;2023-07-28T01:17:42;10.52;;;3.70;;
64875;SDS011;51369;49.862;9.908;2023-07-28T01:20:08;4.97;;;3.45;;
64875;SDS011;51369;49.862;9.908;2023-07-28T01:22:47;4.22;;;3.80;;
64875;SDS011;51369;49.862;9.908;2023-07-28T01:28:18;3.83;;;3.53;;
64875;SDS011;51369;49.862;9.908;2023-07-28T01:30:45;5.43;;;3.90;;
64875;SDS011;51369;49.862;9.908;2023-07-28T01:33:10;5.05;;;3.42;;
64875;SDS011;51369;49.862;9.908;2023-07-28T01:35:36;4.78;;;3.10;;
64875;SDS011;51369;49.862;9.908;2023-07-28T01:38:03;4.43;;;3.60;;
64875;SDS011;51369;49.862;9.908;2023-07-28T01:40:29;5.47;;;3.72;;
64875;SDS011;51369;49.862;9.908;2023-07-28T01:42:55;7.63;;;3.72;;
64875;SDS011;51369;49.862;9.908;2023-07-28T01:45:20;6.22;;;3.35;;
64875;SDS011;51369;49.862;9.908;2023-07-28T01:47:45;3.78;;;3.40;;
64875;SDS011;51369;49.862;9.908;2023-07-28T01:50:11;4.63;;;3.72;;
64875;SDS011;51369;49.862;9.908;2023-07-28T01:52:36;3.88;;;3.47;;
64875;SDS011;51369;49.862;9.908;2023-07-28T01:55:01;7.63;;;3.35;;
64875;SDS011;51369;49.862;9.908;2023-07-28T01:57:32;4.03;;;3.00;;
64875;SDS011;51369;49.862;9.908;2023-07-28T01:59:58;4.07;;;3.67;;
64875;SDS011;51369;49.862;9.908;2023-07-28T02:02:24;10.38;;;3.65;;
64875;SDS011;51369;49.862;9.908;2023-07-28T02:04:50;5.57;;;3.20;;
64875;SDS011;51369;49.862;9.908;2023-07-28T02:07:15;5.32;;;3.65;;
64875;SDS011;51369;49.862;9.908;2023-07-28T02:09:41;7.53;;;3.45;;
64875;SDS011;51369;49.862;9.908;2023-07-28T02:12:06;4.30;;;3.10;;
64875;SDS011;51369;49.862;9.908;2023-07-28T02:14:32;4.38;;;3.42;;
64875;SDS011;51369;49.862;9.908;2023-07-28T02:16:57;3.17;;;2.85;;
64875;SDS011;51369;49.862;9.908;2023-07-28T02:19:23;4.68;;;3.45;;
64875;SDS011;51369;49.862;9.908;2023-07-28T02:21:49;5.65;;;3.53;;
64875;SDS011;51369;49.862;9.908;2023-07-28T02:24:14;4.20;;;3.15;;
64875;SDS011;51369;49.862;9.908;2023-07-28T02:26:40;6.20;;;3.20;;
64875;SDS011;51369;49.862;9.908;2023-07-28T02:29:06;5.10;;;3.10;;
64875;SDS011;51369;49.862;9.908;2023-07-28T02:31:31;6.32;;;3.35;;
64875;SDS011;51369;49.862;9.908;2023-07-28T02:33:57;3.78;;;3.15;;
64875;SDS011;51369;49.862;9.908;2023-07-28T02:36:22;7.03;;;3.47;;
64875;SDS011;51369;49.862;9.908;2023-07-28T02:38:47;5.68;;;3.20;;
64875;SDS011;51369;49.862;9.908;2023-07-28T02:41:13;3.72;;;2.90;;
64875;SDS011;51369;49.862;9.908;2023-07-28T02:43:39;4.15;;;3.00;;
64875;SDS011;51369;49.862;9.908;2023-07-28T02:46:05;5.65;;;3.45;;
64875;SDS011;51369;49.862;9.908;2023-07-28T02:48:30;4.13;;;3.13;;
64875;SDS011;51369;49.862;9.908;2023-07-28T02:50:55;7.05;;;3.92;;
64875;SDS011;51369;49.862;9.908;2023-07-28T02:53:20;4.18;;;3.40;;
64875;SDS011;51369;49.862;9.908;2023-07-28T02:55:46;6.68;;;3.20;;
64875;SDS011;51369;49.862;9.908;2023-07-28T02:58:12;4.22;;;2.95;;
64875;SDS011;51369;49.862;9.908;2023-07-28T03:00:39;2.85;;;2.65;;
64875;SDS011;51369;49.862;9.908;2023-07-28T03:03:09;3.50;;;2.65;;
64875;SDS011;51369;49.862;9.908;2023-07-28T03:05:36;3.15;;;2.85;;
64875;SDS011;51369;49.862;9.908;2023-07-28T03:08:16;7.10;;;2.90;;
64875;SDS011;51369;49.862;9.908;2023-07-28T03:10:42;3.33;;;2.67;;
64875;SDS011;51369;49.862;9.908;2023-07-28T03:13:08;3.78;;;3.00;;
64875;SDS011;51369;49.862;9.908;2023-07-28T03:15:33;5.70;;;3.20;;
64875;SDS011;51369;49.862;9.908;2023-07-28T03:17:58;5.25;;;2.88;;
64875;SDS011;51369;49.862;9.908;2023-07-28T03:20:24;7.00;;;2.60;;
64875;SDS011;51369;49.862;9.908;2023-07-28T03:22:49;3.30;;;3.00;;
64875;SDS011;51369;49.862;9.908;2023-07-28T03:25:15;4.90;;;2.70;;
64875;SDS011;51369;49.862;9.908;2023-07-28T03:27:47;4.25;;;2.33;;
64875;SDS011;51369;49.862;9.908;2023-07-28T03:30:13;3.90;;;2.70;;
64875;SDS011;51369;49.862;9.908;2023-07-28T03:32:38;6.80;;;2.40;;
64875;SDS011;51369;49.862;9.908;2023-07-28T03:35:04;4.63;;;2.42;;
64875;SDS011;51369;49.862;9.908;2023-07-28T03:37:32;5.85;;;2.92;;
64875;SDS011;51369;49.862;9.908;2023-07-28T03:39:58;6.57;;;2.55;;
64875;SDS011;51369;49.862;9.908;2023-07-28T03:42:31;6.63;;;2.42;;
64875;SDS011;51369;49.862;9.908;2023-07-28T03:44:57;3.90;;;2.40;;
64875;SDS011;51369;49.862;9.908;2023-07-28T03:47:23;4.22;;;2.83;;
64875;SDS011;51369;49.862;9.908;2023-07-28T03:49:48;3.45;;;2.50;;
64875;SDS011;51369;49.862;9.908;2023-07-28T03:52:13;7.15;;;2.75;;
64875;SDS011;51369;49.862;9.908;2023-07-28T03:54:39;6.18;;;2.30;;
64875;SDS011;51369;49.862;9.908;2023-07-28T03:57:04;2.42;;;2.22;;
64875;SDS011;51369;49.862;9.908;2023-07-28T03:59:30;4.90;;;2.30;;
64875;SDS011;51369;49.862;9.908;2023-07-28T04:01:55;2.45;;;2.20;;
64875;SDS011;51369;49.862;9.908;2023-07-28T04:04:21;2.78;;;2.40;;
64875;SDS011;51369;49.862;9.908;2023-07-28T04:06:47;8.93;;;2.40;;
64875;SDS011;51369;49.862;9.908;2023-07-28T04:09:15;2.63;;;2.30;;
64875;SDS011;51369;49.862;9.908;2023-07-28T04:11:42;5.75;;;2.75;;
64875;SDS011;51369;49.862;9.908;2023-07-28T04:14:08;3.78;;;2.90;;
64875;SDS011;51369;49.862;9.908;2023-07-28T04:16:33;8.82;;;4.72;;
64875;SDS011;51369;49.862;9.908;2023-07-28T04:18:59;4.20;;;2.50;;
64875;SDS011;51369;49.862;9.908;2023-07-28T04:21:25;3.40;;;2.65;;
64875;SDS011;51369;49.862;9.908;2023-07-28T04:23:50;3.13;;;2.03;;
64875;SDS011;51369;49.862;9.908;2023-07-28T04:26:16;3.05;;;2.70;;
64875;SDS011;51369;49.862;9.908;2023-07-28T04:28:42;2.70;;;2.22;;
64875;SDS011;51369;49.862;9.908;2023-07-28T04:31:08;3.40;;;1.80;;
64875;SDS011;51369;49.862;9.908;2023-07-28T04:33:57;3.15;;;1.95;;
64875;SDS011;51369;49.862;9.908;2023-07-28T04:36:27;2.65;;;2.13;;
64875;SDS011;51369;49.862;9.908;2023-07-28T04:38:52;2.15;;;1.95;;
64875;SDS011;51369;49.862;9.908;2023-07-28T04:41:18;3.40;;;1.90;;
64875;SDS011;51369;49.862;9.908;2023-07-28T04:43:51;4.15;;;2.00;;
64875;SDS011;51369;49.862;9.908;2023-07-28T04:46:17;1.70;;;1.60;;
64875;SDS011;51369;49.862;9.908;2023-07-28T04:48:48;2.72;;;1.90;;
64875;SDS011;51369;49.862;9.908;2023-07-28T04:51:33;2.15;;;1.92;;
64875;SDS011;51369;49.862;9.908;2023-07-28T04:54:19;4.82;;;1.85;;
64875;SDS011;51369;49.862;9.908;2023-07-28T04:56:45;3.30;;;1.95;;
64875;SDS011;51369;49.862;9.908;2023-07-28T04:59:11;5.55;;;2.58;;
64875;SDS011;51369;49.862;9.908;2023-07-28T05:01:36;3.40;;;2.30;;
64875;SDS011;51369;49.862;9.908;2023-07-28T05:04:01;3.10;;;2.20;;
64875;SDS011;51369;49.862;9.908;2023-07-28T05:06:28;2.10;;;1.80;;
64875;SDS011;51369;49.862;9.908;2023-07-28T05:08:54;2.45;;;1.83;;
64875;SDS011;51369;49.862;9.908;2023-07-28T05:11:26;2.65;;;1.83;;
64875;SDS011;51369;49.862;9.908;2023-07-28T05:13:52;2.85;;;2.00;;
64875;SDS011;51369;49.862;9.908;2023-07-28T05:16:17;3.78;;;1.75;;
64875;SDS011;51369;49.862;9.908;2023-07-28T05:19:01;2.20;;;1.55;;
64875;SDS011;51369;49.862;9.908;2023-07-28T05:21:48;5.30;;;2.35;;
64875;SDS011;51369;49.862;9.908;2023-07-28T05:24:16;1.60;;;1.50;;
64875;SDS011;51369;49.862;9.908;2023-07-28T05:26:42;4.32;;;1.55;;
64875;SDS011;51369;49.862;9.908;2023-07-28T05:29:09;1.73;;;1.25;;
64875;SDS011;51369;49.862;9.908;2023-07-28T05:31:34;4.80;;;1.98;;
64875;SDS011;51369;49.862;9.908;2023-07-28T05:34:01;1.88;;;1.60;;
64875;SDS011;51369;49.862;9.908;2023-07-28T05:36:27;1.65;;;1.33;;
64875;SDS011;51369;49.862;9.908;2023-07-28T05:38:57;2.53;;;1.60;;
64875;SDS011;51369;49.862;9.908;2023-07-28T05:41:26;4.53;;;1.80;;
64875;SDS011;51369;49.862;9.908;2023-07-28T05:43:52;4.05;;;1.58;;
64875;SDS011;51369;49.862;9.908;2023-07-28T05:46:18;2.97;;;1.80;;
64875;SDS011;51369;49.862;9.908;2023-07-28T05:48:44;1.58;;;1.48;;
64875;SDS011;51369;49.862;9.908;2023-07-28T05:51:10;4.70;;;1.65;;
64875;SDS011;51369;49.862;9.908;2023-07-28T05:53:35;1.55;;;1.45;;
64875;SDS011;51369;49.862;9.908;2023-07-28T05:56:04;5.32;;;2.00;;
64875;SDS011;51369;49.862;9.908;2023-07-28T05:58:31;6.22;;;2.13;;
64875;SDS011;51369;49.862;9.908;2023-07-28T06:00:57;3.00;;;2.35;;
64875;SDS011;51369;49.862;9.908;2023-07-28T06:03:57;3.00;;;1.77;;
64875;SDS011;51369;49.862;9.908;2023-07-28T06:06:25;5.03;;;2.08;;
64875;SDS011;51369;49.862;9.908;2023-07-28T06:08:51;24.90;;;4.82;;
64875;SDS011;51369;49.862;9.908;2023-07-28T06:11:17;3.92;;;1.80;;
64875;SDS011;51369;49.862;9.908;2023-07-28T06:13:43;3.03;;;1.45;;
64875;SDS011;51369;49.862;9.908;2023-07-28T06:16:10;1.48;;;1.33;;
64875;SDS011;51369;49.862;9.908;2023-07-28T06:18:35;3.60;;;1.65;;
64875;SDS011;51369;49.862;9.908;2023-07-28T06:21:07;1.73;;;1.63;;
64875;SDS011;51369;49.862;9.908;2023-07-28T06:23:32;3.33;;;1.73;;
64875;SDS011;51369;49.862;9.908;2023-07-28T06:25:58;2.60;;;1.33;;
64875;SDS011;51369;49.862;9.908;2023-07-28T06:28:24;2.90;;;1.42;;
64875;SDS011;51369;49.862;9.908;2023-07-28T06:30:55;4.82;;;1.40;;
64875;SDS011;51369;49.862;9.908;2023-07-28T06:33:24;2.78;;;1.50;;
64875;SDS011;51369;49.862;9.908;2023-07-28T06:35:50;1.55;;;1.33;;
64875;SDS011;51369;49.862;9.908;2023-07-28T06:38:16;3.03;;;1.48;;
64875;SDS011;51369;49.862;9.908;2023-07-28T06:40:43;2.17;;;1.50;;
64875;SDS011;51369;49.862;9.908;2023-07-28T06:43:08;2.17;;;1.48;;
64875;SDS011;51369;49.862;9.908;2023-07-28T06:45:34;1.70;;;1.40;;
64875;SDS011;51369;49.862;9.908;2023-07-28T06:48:00;1.50;;;1.40;;
64875;SDS011;51369;49.862;9.908;2023-07-28T06:50:25;3.92;;;1.67;;
64875;SDS011;51369;49.862;9.908;2023-07-28T06:52:51;4.30;;;1.50;;
64875;SDS011;51369;49.862;9.908;2023-07-28T06:55:20;3.47;;;1.30;;
64875;SDS011;51369;49.862;9.908;2023-07-28T06:57:47;4.60;;;1.40;;
64875;SDS011;51369;49.862;9.908;2023-07-28T07:00:13;2.05;;;1.70;;
64875;SDS011;51369;49.862;9.908;2023-07-28T07:02:39;1.50;;;1.40;;
64875;SDS011;51369;49.862;9.908;2023-07-28T07:05:05;4.70;;;1.70;;
64875;SDS011;51369;49.862;9.908;2023-07-28T07:07:31;1.77;;;1.67;;
64875;SDS011;51369;49.862;9.908;2023-07-28T07:09:57;1.92;;;1.38;;
64875;SDS011;51369;49.862;9.908;2023-07-28T07:12:22;3.55;;;1.60;;
64875;SDS011;51369;49.862;9.908;2023-07-28T07:14:48;2.40;;;1.38;;
64875;SDS011;51369;49.862;9.908;2023-07-28T07:17:13;2.05;;;1.85;;
64875;SDS011;51369;49.862;9.908;2023-07-28T07:19:39;4.88;;;1.77;;
64875;SDS011;51369;49.862;9.908;2023-07-28T07:22:04;2.88;;;1.83;;
64875;SDS011;51369;49.862;9.908;2023-07-28T07:24:30;2.67;;;1.77;;
64875;SDS011;51369;49.862;9.908;2023-07-28T07:26:56;4.30;;;1.80;;
64875;SDS011;51369;49.862;9.908;2023-07-28T07:29:21;2.67;;;1.83;;
64875;SDS011;51369;49.862;9.908;2023-07-28T07:31:46;1.60;;;1.50;;
64875;SDS011;51369;49.862;9.908;2023-07-28T07:34:12;2.65;;;2.13;;
64875;SDS011;51369;49.862;9.908;2023-07-28T07:36:38;2.90;;;1.98;;
64875;SDS011;51369;49.862;9.908;2023-07-28T07:39:04;2.97;;;1.80;;
64875;SDS011;51369;49.862;9.908;2023-07-28T07:41:30;3.70;;;2.13;;
64875;SDS011;51369;49.862;9.908;2023-07-28T07:43:56;2.80;;;1.90;;
64875;SDS011;51369;49.862;9.908;2023-07-28T07:46:22;1.90;;;1.65;;
64875;SDS011;51369;49.862;9.908;2023-07-28T07:48:48;3.05;;;1.52;;
64875;SDS011;51369;49.862;9.908;2023-07-28T07:51:13;3.75;;;1.95;;
64875;SDS011;51369;49.862;9.908;2023-07-28T07:53:39;2.97;;;1.95;;
64875;SDS011;51369;49.862;9.908;2023-07-28T07:56:05;3.63;;;2.05;;
64875;SDS011;51369;49.862;9.908;2023-07-28T07:58:32;3.17;;;1.60;;
64875;SDS011;51369;49.862;9.908;2023-07-28T08:00:58;1.95;;;1.83;;
64875;SDS011;51369;49.862;9.908;2023-07-28T08:03:23;1.40;;;1.30;;
64875;SDS011;51369;49.862;9.908;2023-07-28T08:05:50;1.60;;;1.50;;
64875;SDS011;51369;49.862;9.908;2023-07-28T08:08:16;5.53;;;1.73;;
64875;SDS011;51369;49.862;9.908;2023-07-28T08:10:43;1.90;;;1.80;;
64875;SDS011;51369;49.862;9.908;2023-07-28T08:13:08;2.70;;;1.80;;
64875;SDS011;51369;49.862;9.908;2023-07-28T08:15:34;1.90;;;1.77;;
64875;SDS011;51369;49.862;9.908;2023-07-28T08:17:59;5.40;;;2.15;;
64875;SDS011;51369;49.862;9.908;2023-07-28T08:20:25;3.20;;;1.98;;
64875;SDS011;51369;49.862;9.908;2023-07-28T08:22:50;2.47;;;1.80;;
64875;SDS011;51369;49.862;9.908;2023-07-28T08:25:15;2.08;;;1.70;;
64875;SDS011;51369;49.862;9.908;2023-07-28T08:27:41;2.05;;;1.85;;
64875;SDS011;51369;49.862;9.908;2023-07-28T08:30:06;1.75;;;1.65;;
64875;SDS011;51369;49.862;9.908;2023-07-28T08:32:34;6.00;;;1.80;;
64875;SDS011;51369;49.862;9.908;2023-07-28T08:34:59;3.67;;;1.42;;
64875;SDS011;51369;49.862;9.908;2023-07-28T08:37:24;3.25;;;1.50;;
64875;SDS011;51369;49.862;9.908;2023-07-28T08:39:50;3.88;;;1.70;;
64875;SDS011;51369;49.862;9.908;2023-07-28T08:42:15;1.77;;;1.67;;
64875;SDS011;51369;49.862;9.908;2023-07-28T08:44:41;2.28;;;1.63;;
64875;SDS011;51369;49.862;9.908;2023-07-28T08:47:06;4.10;;;1.83;;
64875;SDS011;51369;49.862;9.908;2023-07-28T08:49:32;1.70;;;1.60;;
64875;SDS011;51369;49.862;9.908;2023-07-28T08:52:00;1.73;;;1.63;;
64875;SDS011;51369;49.862;9.908;2023-07-28T08:54:25;1.60;;;1.50;;
64875;SDS011;51369;49.862;9.908;2023-07-28T08:56:51;1.90;;;1.80;;
64875;SDS011;51369;49.862;9.908;2023-07-28T08:59:26;2.42;;;1.17;;
64875;SDS011;51369;49.862;9.908;2023-07-28T09:01:53;1.63;;;1.35;;
64875;SDS011;51369;49.862;9.908;2023-07-28T09:04:20;2.53;;;1.58;;
64875;SDS011;51369;49.862;9.908;2023-07-28T09:06:47;1.52;;;1.42;;
64875;SDS011;51369;49.862;9.908;2023-07-28T09:09:14;3.60;;;1.65;;
64875;SDS011;51369;49.862;9.908;2023-07-28T09:11:46;1.67;;;1.58;;
64875;SDS011;51369;49.862;9.908;2023-07-28T09:14:13;2.08;;;1.73;;
64875;SDS011;51369;49.862;9.908;2023-07-28T09:16:39;5.40;;;1.98;;
64875;SDS011;51369;49.862;9.908;2023-07-28T09:19:05;4.50;;;1.92;;
64875;SDS011;51369;49.862;9.908;2023-07-28T09:21:32;2.90;;;1.40;;
64875;SDS011;51369;49.862;9.908;2023-07-28T09:23:59;2.22;;;1.52;;
64875;SDS011;51369;49.862;9.908;2023-07-28T09:29:10;1.55;;;1.45;;
64875;SDS011;51369;49.862;9.908;2023-07-28T09:31:42;2.03;;;1.83;;
64875;SDS011;51369;49.862;9.908;2023-07-28T09:34:11;1.90;;;1.80;;
64875;SDS011;51369;49.862;9.908;2023-07-28T09:36:38;1.88;;;1.77;;
64875;SDS011;51369;49.862;9.908;2023-07-28T09:39:04;1.63;;;1.52;;
64875;SDS011;51369;49.862;9.908;2023-07-28T09:41:35;6.03;;;1.92;;
64875;SDS011;51369;49.862;9.908;2023-07-28T09:44:02;2.47;;;1.90;;
64875;SDS011;51369;49.862;9.908;2023-07-28T09:46:28;2.10;;;2.00;;
64875;SDS011;51369;49.862;9.908;2023-07-28T09:48:55;5.95;;;2.60;;
64875;SDS011;51369;49.862;9.908;2023-07-28T09:51:27;2.28;;;2.08;;
64875;SDS011;51369;49.862;9.908;2023-07-28T09:54:06;8.13;;;1.80;;
64875;SDS011;51369;49.862;9.908;2023-07-28T09:56:50;2.10;;;1.95;;
64875;SDS011;51369;49.862;9.908;2023-07-28T09:59:17;2.90;;;1.90;;
64875;SDS011;51369;49.862;9.908;2023-07-28T10:01:43;1.92;;;1.80;;
64875;SDS011;51369;49.862;9.908;2023-07-28T10:04:10;1.83;;;1.73;;
64875;SDS011;51369;49.862;9.908;2023-07-28T10:06:36;3.63;;;2.05;;
64875;SDS011;51369;49.862;9.908;2023-07-28T10:09:03;1.67;;;1.58;;
64875;SDS011;51369;49.862;9.908;2023-07-28T10:11:30;1.98;;;1.70;;
64875;SDS011;51369;49.862;9.908;2023-07-28T10:13:56;2.08;;;1.88;;
64875;SDS011;51369;49.862;9.908;2023-07-28T10:16:31;1.75;;;1.58;;
64875;SDS011;51369;49.862;9.908;2023-07-28T10:19:03;2.63;;;2.42;;
64875;SDS011;51369;49.862;9.908;2023-07-28T10:21:28;3.22;;;2.03;;
64875;SDS011;51369;49.862;9.908;2023-07-28T10:23:55;2.53;;;2.33;;
64875;SDS011;51369;49.862;9.908;2023-07-28T10:26:31;2.38;;;2.25;;
64875;SDS011;51369;49.862;9.908;2023-07-28T10:31:52;4.82;;;2.13;;
64875;SDS011;51369;49.862;9.908;2023-07-28T10:34:19;4.38;;;2.22;;
64875;SDS011;51369;49.862;9.908;2023-07-28T10:36:47;2.85;;;1.90;;
64875;SDS011;51369;49.862;9.908;2023-07-28T10:39:20;2.30;;;2.10;;
64875;SDS011;51369;49.862;9.908;2023-07-28T10:42:03;2.30;;;2.20;;
64875;SDS011;51369;49.862;9.908;2023-07-28T10:44:30;2.15;;;2.05;;
64875;SDS011;51369;49.862;9.908;2023-07-28T10:46:56;2.30;;;2.10;;
64875;SDS011;51369;49.862;9.908;2023-07-28T10:49:21;2.17;;;1.98;;
64875;SDS011;51369;49.862;9.908;2023-07-28T10:51:47;3.40;;;2.20;;
64875;SDS011;51369;49.862;9.908;2023-07-28T10:54:13;2.60;;;2.33;;
64875;SDS011;51369;49.862;9.908;2023-07-28T10:56:42;3.25;;;2.40;;
64875;SDS011;51369;49.862;9.908;2023-07-28T10:59:07;3.10;;;2.15;;
64875;SDS011;51369;49.862;9.908;2023-07-28T11:01:36;3.05;;;1.98;;
64875;SDS011;51369;49.862;9.908;2023-07-28T11:06:41;5.60;;;2.47;;
64875;SDS011;51369;49.862;9.908;2023-07-28T11:09:11;7.40;;;2.50;;
64875;SDS011;51369;49.862;9.908;2023-07-28T11:11:37;3.72;;;2.30;;
64875;SDS011;51369;49.862;9.908;2023-07-28T11:14:04;4.43;;;2.63;;
64875;SDS011;51369;49.862;9.908;2023-07-28T11:16:33;2.13;;;2.00;;
64875;SDS011;51369;49.862;9.908;2023-07-28T11:19:00;2.30;;;1.95;;
64875;SDS011;51369;49.862;9.908;2023-07-28T11:21:27;1.90;;;1.80;;
64875;SDS011;51369;49.862;9.908;2023-07-28T11:23:54;2.53;;;2.30;;
64875;SDS011;51369;49.862;9.908;2023-07-28T11:26:22;2.65;;;1.98;;
64875;SDS011;51369;49.862;9.908;2023-07-28T11:28:48;1.88;;;1.77;;
64875;SDS011;51369;49.862;9.908;2023-07-28T11:31:14;3.15;;;1.90;;
64875;SDS011;51369;49.862;9.908;2023-07-28T11:33:39;2.45;;;1.80;;
64875;SDS011;51369;49.862;9.908;2023-07-28T11:36:05;2.03;;;1.90;;
64875;SDS011;51369;49.862;9.908;2023-07-28T11:38:31;4.93;;;2.08;;
64875;SDS011;51369;49.862;9.908;2023-07-28T11:40:58;2.40;;;2.20;;
64875;SDS011;51369;49.862;9.908;2023-07-28T11:43:24;2.28;;;2.17;;
64875;SDS011;51369;49.862;9.908;2023-07-28T11:45:50;2.15;;;1.95;;
64875;SDS011;51369;49.862;9.908;2023-07-28T11:48:16;2.40;;;2.20;;
64875;SDS011;51369;49.862;9.908;2023-07-28T11:50:43;2.17;;;2.00;;
64875;SDS011;51369;49.862;9.908;2023-07-28T11:53:09;2.40;;;2.20;;
64875;SDS011;51369;49.862;9.908;2023-07-28T11:55:36;2.15;;;2.00;;
64875;SDS011;51369;49.862;9.908;2023-07-28T11:58:03;2.13;;;1.98;;
64875;SDS011;51369;49.862;9.908;2023-07-28T12:00:32;2.00;;;1.90;;
64875;SDS011;51369;49.862;9.908;2023-07-28T12:03:06;2.10;;;1.88;;
64875;SDS011;51369;49.862;9.908;2023-07-28T12:05:37;2.00;;;1.90;;
64875;SDS011;51369;49.862;9.908;2023-07-28T12:08:06;2.20;;;2.00;;
64875;SDS011;51369;49.862;9.908;2023-07-28T12:10:34;3.03;;;1.98;;
64875;SDS011;51369;49.862;9.908;2023-07-28T12:13:04;7.35;;;2.05;;
64875;SDS011;51369;49.862;9.908;2023-07-28T12:15:31;3.00;;;1.85;;
64875;SDS011;51369;49.862;9.908;2023-07-28T12:18:09;1.65;;;1.52;;
64875;SDS011;51369;49.862;9.908;2023-07-28T12:23:06;2.00;;;1.80;;
64875;SDS011;51369;49.862;9.908;2023-07-28T12:25:33;1.73;;;1.63;;
64875;SDS011;51369;49.862;9.908;2023-07-28T12:28:01;2.10;;;2.00;;
64875;SDS011;51369;49.862;9.908;2023-07-28T12:30:27;1.58;;;1.48;;
64875;SDS011;51369;49.862;9.908;2023-07-28T12:32:53;1.77;;;1.67;;
64875;SDS011;51369;49.862;9.908;2023-07-28T12:35:18;1.70;;;1.60;;
64875;SDS011;51369;49.862;9.908;2023-07-28T12:37:44;1.48;;;1.38;;
64875;SDS011;51369;49.862;9.908;2023-07-28T12:40:10;1.92;;;1.75;;
64875;SDS011;51369;49.862;9.908;2023-07-28T12:42:35;3.65;;;1.52;;
64875;SDS011;51369;49.862;9.908;2023-07-28T12:45:01;1.77;;;1.42;;
64875;SDS011;51369;49.862;9.908;2023-07-28T12:47:26;1.60;;;1.50;;
64875;SDS011;51369;49.862;9.908;2023-07-28T12:49:52;1.40;;;1.35;;
64875;SDS011;51369;49.862;9.908;2023-07-28T12:52:18;2.72;;;1.35;;
64875;SDS011;51369;49.862;9.908;2023-07-28T12:54:45;1.40;;;1.30;;
64875;SDS011;51369;49.862;9.908;2023-07-28T12:57:10;1.30;;;1.20;;
64875;SDS011;51369;49.862;9.908;2023-07-28T12:59:37;1.48;;;1.38;;
64875;SDS011;51369;49.862;9.908;2023-07-28T13:02:03;1.98;;;1.30;;
64875;SDS011;51369;49.862;9.908;2023-07-28T13:04:29;3.67;;;1.73;;
64875;SDS011;51369;49.862;9.908;2023-07-28T13:06:54;1.67;;;1.30;;
64875;SDS011;51369;49.862;9.908;2023-07-28T13:09:19;4.72;;;1.40;;
64875;SDS011;51369;49.862;9.908;2023-07-28T13:11:45;1.40;;;1.30;;
64875;SDS011;51369;49.862;9.908;2023-07-28T13:14:10;1.88;;;1.45;;
64875;SDS011;51369;49.862;9.908;2023-07-28T13:16:36;1.65;;;0.98;;
64875;SDS011;51369;49.862;9.908;2023-07-28T13:19:03;1.55;;;1.45;;
64875;SDS011;51369;49.862;9.908;2023-07-28T13:21:28;1.50;;;1.20;;
64875;SDS011;51369;49.862;9.908;2023-07-28T13:23:54;1.40;;;1.30;;
64875;SDS011;51369;49.862;9.908;2023-07-28T13:26:19;2.38;;;1.67;;
64875;SDS011;51369;49.862;9.908;2023-07-28T13:28:45;2.05;;;1.60;;
64875;SDS011;51369;49.862;9.908;2023-07-28T13:31:15;4.00;;;1.58;;
64875;SDS011;51369;49.862;9.908;2023-07-28T13:33:41;1.50;;;1.40;;
64875;SDS011;51369;49.862;9.908;2023-07-28T13:36:07;2.05;;;1.60;;
64875;SDS011;51369;49.862;9.908;2023-07-28T13:38:33;1.42;;;1.33;;
64875;SDS011;51369;49.862;9.908;2023-07-28T13:40:58;2.28;;;1.95;;
64875;SDS011;51369;49.862;9.908;2023-07-28T13:43:24;1.35;;;1.27;;
64875;SDS011;51369;49.862;9.908;2023-07-28T13:45:49;1.63;;;1.52;;
64875;SDS011;51369;49.862;9.908;2023-07-28T13:48:14;1.55;;;1.27;;
64875;SDS011;51369;49.862;9.908;2023-07-28T13:50:40;1.45;;;1.35;;
64875;SDS011;51369;49.862;9.908;2023-07-28T13:53:05;1.92;;;1.52;;
64875;SDS011;51369;49.862;9.908;2023-07-28T13:55:30;1.98;;;1.58;;
64875;SDS011;51369;49.862;9.908;2023-07-28T13:57:56;1.30;;;1.20;;
64875;SDS011;51369;49.862;9.908;2023-07-28T14:00:21;2.15;;;1.50;;
64875;SDS011;51369;49.862;9.908;2023-07-28T14:02:47;1.40;;;1.30;;
64875;SDS011;51369;49.862;9.908;2023-07-28T14:05:13;1.70;;;1.60;;
64875;SDS011;51369;49.862;9.908;2023-07-28T14:07:38;1.48;;;1.38;;
64875;SDS011;51369;49.862;9.908;2023-07-28T14:10:03;2.22;;;1.40;;
64875;SDS011;51369;49.862;9.908;2023-07-28T14:12:29;1.42;;;1.33;;
64875;SDS011;51369;49.862;9.908;2023-07-28T14:14:54;1.70;;;1.60;;
64875;SDS011;51369;49.862;9.908;2023-07-28T14:17:20;3.28;;;1.80;;
64875;SDS011;51369;49.862;9.908;2023-07-28T14:19:45;2.22;;;1.48;;
64875;SDS011;51369;49.862;9.908;2023-07-28T14:22:11;2.20;;;1.50;;
64875;SDS011;51369;49.862;9.908;2023-07-28T14:24:37;1.60;;;1.50;;
64875;SDS011;51369;49.862;9.908;2023-07-28T14:27:04;3.13;;;1.15;;
64875;SDS011;51369;49.862;9.908;2023-07-28T14:29:30;1.95;;;1.48;;
64875;SDS011;51369;49.862;9.908;2023-07-28T14:31:55;3.05;;;1.63;;
64875;SDS011;51369;49.862;9.908;2023-07-28T14:34:21;1.58;;;1.50;;
64875;SDS011;51369;49.862;9.908;2023-07-28T14:36:47;2.78;;;1.60;;
64875;SDS011;51369;49.862;9.908;2023-07-28T14:39:13;1.73;;;1.63;;
64875;SDS011;51369;49.862;9.908;2023-07-28T14:41:38;1.85;;;1.70;;
64875;SDS011;51369;49.862;9.908;2023-07-28T14:44:03;1.60;;;1.50;;
64875;SDS011;51369;49.862;9.908;2023-07-28T14:46:29;2.10;;;1.88;;
64875;SDS011;51369;49.862;9.908;2023-07-28T14:48:54;4.60;;;1.70;;
64875;SDS011;51369;49.862;9.908;2023-07-28T14:51:20;3.33;;;1.88;;
64875;SDS011;51369;49.862;9.908;2023-07-28T14:53:47;2.95;;;1.77;;
64875;SDS011;51369;49.862;9.908;2023-07-28T14:56:12;3.67;;;1.52;;
64875;SDS011;51369;49.862;9.908;2023-07-28T14:58:38;2.13;;;1.80;;
64875;SDS011;51369;49.862;9.908;2023-07-28T15:01:07;3.45;;;2.00;;
64875;SDS011;51369;49.862;9.908;2023-07-28T15:03:35;1.48;;;1.38;;